sensor_id;sensor_type;location;lat;lon;timestamp;P1;durP1;ratioP1;P2;durP2;ratioP2
32838;SDS011;19182;41.820;12.808;2023-05-16T00:00:51;1.38;;;1.27;;
32838;SDS011;19182;41.820;12.808;2023-05-16T00:03:17;1.60;;;1.30;;
32838;SDS011;19182;41.820;12.808;2023-05-16T00:05:44;2.03;;;1.25;;
32838;SDS011;19182;41.820;12.808;2023-05-16T00:08:10;1.30;;;1.20;;
32838;SDS011;19182;41.820;12.808;2023-05-16T00:10:36;2.33;;;1.60;;
32838;SDS011;19182;41.820;12.808;2023-05-16T00:13:02;2.17;;;1.20;;
32838;SDS011;19182;41.820;12.808;2023-05-16T00:15:28;2.63;;;1.30;;
32838;SDS011;19182;41.820;12.808;2023-05-16T00:17:56;5.53;;;1.50;;
32838;SDS011;19182;41.820;12.808;2023-05-16T00:20:26;2.78;;;1.20;;
32838;SDS011;19182;41.820;12.808;2023-05-16T00:22:53;1.85;;;1.40;;
32838;SDS011;19182;41.820;12.808;2023-05-16T00:25:19;1.13;;;1.02;;
32838;SDS011;19182;41.820;12.808;2023-05-16T00:27:45;1.88;;;1.35;;
32838;SDS011;19182;41.820;12.808;2023-05-16T00:30:12;1.27;;;1.17;;
32838;SDS011;19182;41.820;12.808;2023-05-16T00:32:39;2.22;;;1.50;;
32838;SDS011;19182;41.820;12.808;2023-05-16T00:35:05;2.72;;;1.40;;
32838;SDS011;19182;41.820;12.808;2023-05-16T00:37:31;1.50;;;1.40;;
32838;SDS011;19182;41.820;12.808;2023-05-16T00:39:57;1.80;;;1.10;;
32838;SDS011;19182;41.820;12.808;2023-05-16T00:42:23;2.28;;;1.20;;
32838;SDS011;19182;41.820;12.808;2023-05-16T00:44:49;1.75;;;1.40;;
32838;SDS011;19182;41.820;12.808;2023-05-16T00:47:14;1.48;;;1.30;;
32838;SDS011;19182;41.820;12.808;2023-05-16T00:49:41;1.38;;;1.27;;
32838;SDS011;19182;41.820;12.808;2023-05-16T00:52:07;1.40;;;1.30;;
32838;SDS011;19182;41.820;12.808;2023-05-16T00:54:32;2.05;;;1.38;;
32838;SDS011;19182;41.820;12.808;2023-05-16T00:56:58;1.30;;;1.20;;
32838;SDS011;19182;41.820;12.808;2023-05-16T00:59:24;1.27;;;1.17;;
32838;SDS011;19182;41.820;12.808;2023-05-16T01:01:50;3.47;;;1.30;;
32838;SDS011;19182;41.820;12.808;2023-05-16T01:04:17;2.13;;;1.25;;
32838;SDS011;19182;41.820;12.808;2023-05-16T01:06:44;1.65;;;1.55;;
32838;SDS011;19182;41.820;12.808;2023-05-16T01:09:10;2.25;;;1.30;;
32838;SDS011;19182;41.820;12.808;2023-05-16T01:11:56;1.50;;;1.40;;
32838;SDS011;19182;41.820;12.808;2023-05-16T01:20:16;2.97;;;1.25;;
32838;SDS011;19182;41.820;12.808;2023-05-16T01:27:57;1.67;;;1.42;;
32838;SDS011;19182;41.820;12.808;2023-05-16T01:30:31;1.30;;;1.20;;
32838;SDS011;19182;41.820;12.808;2023-05-16T01:32:59;1.85;;;1.45;;
32838;SDS011;19182;41.820;12.808;2023-05-16T01:35:25;1.58;;;1.33;;
32838;SDS011;19182;41.820;12.808;2023-05-16T01:38:09;1.83;;;1.20;;
32838;SDS011;19182;41.820;12.808;2023-05-16T01:43:32;1.77;;;1.20;;
32838;SDS011;19182;41.820;12.808;2023-05-16T01:46:20;3.17;;;1.27;;
32838;SDS011;19182;41.820;12.808;2023-05-16T01:49:01;2.10;;;1.45;;
32838;SDS011;19182;41.820;12.808;2023-05-16T01:51:44;2.93;;;1.17;;
32838;SDS011;19182;41.820;12.808;2023-05-16T01:54:25;1.38;;;1.27;;
32838;SDS011;19182;41.820;12.808;2023-05-16T01:56:55;1.13;;;1.02;;
32838;SDS011;19182;41.820;12.808;2023-05-16T01:59:22;1.40;;;1.30;;
32838;SDS011;19182;41.820;12.808;2023-05-16T02:01:49;1.38;;;1.27;;
32838;SDS011;19182;41.820;12.808;2023-05-16T02:04:27;1.17;;;1.02;;
32838;SDS011;19182;41.820;12.808;2023-05-16T02:06:53;2.53;;;1.20;;
32838;SDS011;19182;41.820;12.808;2023-05-16T02:09:20;1.25;;;1.05;;
32838;SDS011;19182;41.820;12.808;2023-05-16T02:11:46;3.72;;;1.20;;
32838;SDS011;19182;41.820;12.808;2023-05-16T02:14:12;1.45;;;1.20;;
32838;SDS011;19182;41.820;12.808;2023-05-16T02:16:38;1.00;;;1.00;;
32838;SDS011;19182;41.820;12.808;2023-05-16T02:19:03;3.45;;;1.27;;
32838;SDS011;19182;41.820;12.808;2023-05-16T02:21:30;2.55;;;1.13;;
32838;SDS011;19182;41.820;12.808;2023-05-16T02:23:55;2.30;;;1.38;;
32838;SDS011;19182;41.820;12.808;2023-05-16T02:26:22;2.40;;;1.45;;
32838;SDS011;19182;41.820;12.808;2023-05-16T02:28:47;1.15;;;1.00;;
32838;SDS011;19182;41.820;12.808;2023-05-16T02:31:26;2.10;;;1.05;;
32838;SDS011;19182;41.820;12.808;2023-05-16T02:33:57;3.42;;;1.10;;
32838;SDS011;19182;41.820;12.808;2023-05-16T02:36:24;1.02;;;0.98;;
32838;SDS011;19182;41.820;12.808;2023-05-16T02:38:50;2.42;;;1.05;;
32838;SDS011;19182;41.820;12.808;2023-05-16T02:41:16;4.72;;;1.00;;
32838;SDS011;19182;41.820;12.808;2023-05-16T02:43:43;2.42;;;1.15;;
32838;SDS011;19182;41.820;12.808;2023-05-16T02:46:29;1.52;;;1.10;;
32838;SDS011;19182;41.820;12.808;2023-05-16T02:48:59;3.97;;;1.25;;
32838;SDS011;19182;41.820;12.808;2023-05-16T02:51:26;1.17;;;1.00;;
32838;SDS011;19182;41.820;12.808;2023-05-16T02:53:53;1.23;;;1.02;;
32838;SDS011;19182;41.820;12.808;2023-05-16T02:56:21;1.58;;;0.98;;
32838;SDS011;19182;41.820;12.808;2023-05-16T02:58:47;2.40;;;1.20;;
32838;SDS011;19182;41.820;12.808;2023-05-16T03:01:14;4.63;;;1.23;;
32838;SDS011;19182;41.820;12.808;2023-05-16T03:03:40;1.25;;;1.00;;
32838;SDS011;19182;41.820;12.808;2023-05-16T03:06:06;2.15;;;1.10;;
32838;SDS011;19182;41.820;12.808;2023-05-16T03:08:33;1.35;;;1.20;;
32838;SDS011;19182;41.820;12.808;2023-05-16T03:11:02;3.08;;;1.20;;
32838;SDS011;19182;41.820;12.808;2023-05-16T03:13:28;1.48;;;1.35;;
32838;SDS011;19182;41.820;12.808;2023-05-16T03:15:54;7.18;;;1.73;;
32838;SDS011;19182;41.820;12.808;2023-05-16T03:18:20;1.88;;;0.90;;
32838;SDS011;19182;41.820;12.808;2023-05-16T03:20:46;4.43;;;1.50;;
32838;SDS011;19182;41.820;12.808;2023-05-16T03:23:12;1.13;;;1.02;;
32838;SDS011;19182;41.820;12.808;2023-05-16T03:25:39;1.98;;;1.27;;
32838;SDS011;19182;41.820;12.808;2023-05-16T03:28:07;2.88;;;1.30;;
32838;SDS011;19182;41.820;12.808;2023-05-16T03:30:34;2.00;;;1.40;;
32838;SDS011;19182;41.820;12.808;2023-05-16T03:33:00;1.33;;;1.20;;
32838;SDS011;19182;41.820;12.808;2023-05-16T03:35:26;1.80;;;1.08;;
32838;SDS011;19182;41.820;12.808;2023-05-16T03:37:54;3.08;;;1.25;;
32838;SDS011;19182;41.820;12.808;2023-05-16T03:40:20;1.98;;;1.30;;
32838;SDS011;19182;41.820;12.808;2023-05-16T03:42:46;4.10;;;1.33;;
32838;SDS011;19182;41.820;12.808;2023-05-16T03:45:11;1.40;;;1.30;;
32838;SDS011;19182;41.820;12.808;2023-05-16T03:47:37;1.13;;;1.10;;
32838;SDS011;19182;41.820;12.808;2023-05-16T03:50:03;1.60;;;1.50;;
32838;SDS011;19182;41.820;12.808;2023-05-16T03:52:30;2.25;;;1.30;;
32838;SDS011;19182;41.820;12.808;2023-05-16T03:54:55;2.55;;;1.20;;
32838;SDS011;19182;41.820;12.808;2023-05-16T03:57:21;1.65;;;1.30;;
32838;SDS011;19182;41.820;12.808;2023-05-16T03:59:47;1.70;;;1.45;;
32838;SDS011;19182;41.820;12.808;2023-05-16T04:02:13;2.65;;;1.30;;
32838;SDS011;19182;41.820;12.808;2023-05-16T04:04:39;2.72;;;1.08;;
32838;SDS011;19182;41.820;12.808;2023-05-16T04:07:07;1.48;;;1.30;;
32838;SDS011;19182;41.820;12.808;2023-05-16T04:09:34;3.83;;;1.02;;
32838;SDS011;19182;41.820;12.808;2023-05-16T04:11:59;1.50;;;1.40;;
32838;SDS011;19182;41.820;12.808;2023-05-16T04:14:27;0.93;;;0.90;;
32838;SDS011;19182;41.820;12.808;2023-05-16T04:16:52;6.05;;;1.45;;
32838;SDS011;19182;41.820;12.808;2023-05-16T04:19:18;1.85;;;1.50;;
32838;SDS011;19182;41.820;12.808;2023-05-16T04:21:44;4.57;;;1.33;;
32838;SDS011;19182;41.820;12.808;2023-05-16T04:24:10;2.25;;;1.10;;
32838;SDS011;19182;41.820;12.808;2023-05-16T04:26:37;5.57;;;1.33;;
32838;SDS011;19182;41.820;12.808;2023-05-16T04:29:04;2.92;;;1.50;;
32838;SDS011;19182;41.820;12.808;2023-05-16T04:31:32;1.92;;;1.38;;
32838;SDS011;19182;41.820;12.808;2023-05-16T04:33:59;3.58;;;1.40;;
32838;SDS011;19182;41.820;12.808;2023-05-16T04:36:25;3.35;;;1.75;;
32838;SDS011;19182;41.820;12.808;2023-05-16T04:38:54;3.67;;;1.27;;
32838;SDS011;19182;41.820;12.808;2023-05-16T04:41:21;2.78;;;1.25;;
32838;SDS011;19182;41.820;12.808;2023-05-16T04:43:49;1.23;;;1.10;;
32838;SDS011;19182;41.820;12.808;2023-05-16T04:46:15;2.28;;;1.20;;
32838;SDS011;19182;41.820;12.808;2023-05-16T04:48:41;2.65;;;1.42;;
32838;SDS011;19182;41.820;12.808;2023-05-16T04:51:08;4.22;;;2.17;;
32838;SDS011;19182;41.820;12.808;2023-05-16T04:53:34;2.15;;;1.42;;
32838;SDS011;19182;41.820;12.808;2023-05-16T04:56:01;2.08;;;1.48;;
32838;SDS011;19182;41.820;12.808;2023-05-16T04:58:29;3.10;;;1.30;;
32838;SDS011;19182;41.820;12.808;2023-05-16T05:00:56;2.35;;;1.60;;
32838;SDS011;19182;41.820;12.808;2023-05-16T05:03:23;2.05;;;1.38;;
32838;SDS011;19182;41.820;12.808;2023-05-16T05:05:49;3.85;;;1.30;;
32838;SDS011;19182;41.820;12.808;2023-05-16T05:08:17;2.50;;;1.45;;
32838;SDS011;19182;41.820;12.808;2023-05-16T05:10:42;2.58;;;1.52;;
32838;SDS011;19182;41.820;12.808;2023-05-16T05:13:09;1.33;;;1.20;;
32838;SDS011;19182;41.820;12.808;2023-05-16T05:15:35;3.03;;;1.70;;
32838;SDS011;19182;41.820;12.808;2023-05-16T05:18:04;3.10;;;1.80;;
32838;SDS011;19182;41.820;12.808;2023-05-16T05:20:31;8.43;;;1.40;;
32838;SDS011;19182;41.820;12.808;2023-05-16T05:22:57;1.65;;;1.40;;
32838;SDS011;19182;41.820;12.808;2023-05-16T05:25:24;1.40;;;1.27;;
32838;SDS011;19182;41.820;12.808;2023-05-16T05:27:50;2.53;;;1.40;;
32838;SDS011;19182;41.820;12.808;2023-05-16T05:30:16;3.58;;;1.52;;
32838;SDS011;19182;41.820;12.808;2023-05-16T05:32:41;1.13;;;1.08;;
32838;SDS011;19182;41.820;12.808;2023-05-16T05:35:07;2.67;;;1.40;;
32838;SDS011;19182;41.820;12.808;2023-05-16T05:37:35;3.50;;;1.50;;
32838;SDS011;19182;41.820;12.808;2023-05-16T05:40:02;4.68;;;1.38;;
32838;SDS011;19182;41.820;12.808;2023-05-16T05:42:28;2.20;;;1.30;;
32838;SDS011;19182;41.820;12.808;2023-05-16T05:44:53;2.13;;;1.58;;
32838;SDS011;19182;41.820;12.808;2023-05-16T05:47:20;3.33;;;1.52;;
32838;SDS011;19182;41.820;12.808;2023-05-16T05:49:46;1.73;;;1.33;;
32838;SDS011;19182;41.820;12.808;2023-05-16T05:52:14;6.18;;;1.55;;
32838;SDS011;19182;41.820;12.808;2023-05-16T05:54:41;3.40;;;1.48;;
32838;SDS011;19182;41.820;12.808;2023-05-16T05:57:08;2.20;;;1.20;;
32838;SDS011;19182;41.820;12.808;2023-05-16T05:59:35;4.75;;;1.77;;
32838;SDS011;19182;41.820;12.808;2023-05-16T06:02:01;3.33;;;1.08;;
32838;SDS011;19182;41.820;12.808;2023-05-16T06:04:27;1.70;;;1.15;;
32838;SDS011;19182;41.820;12.808;2023-05-16T06:06:54;1.38;;;1.10;;
32838;SDS011;19182;41.820;12.808;2023-05-16T06:09:20;1.13;;;0.80;;
32838;SDS011;19182;41.820;12.808;2023-05-16T06:11:48;1.67;;;0.98;;
32838;SDS011;19182;41.820;12.808;2023-05-16T06:14:15;1.40;;;0.88;;
32838;SDS011;19182;41.820;12.808;2023-05-16T06:16:41;2.15;;;0.90;;
32838;SDS011;19182;41.820;12.808;2023-05-16T06:19:08;3.22;;;1.02;;
32838;SDS011;19182;41.820;12.808;2023-05-16T06:21:39;1.15;;;1.05;;
32838;SDS011;19182;41.820;12.808;2023-05-16T06:24:05;0.75;;;0.73;;
32838;SDS011;19182;41.820;12.808;2023-05-16T06:26:32;0.82;;;0.80;;
32838;SDS011;19182;41.820;12.808;2023-05-16T06:28:59;2.97;;;0.90;;
32838;SDS011;19182;41.820;12.808;2023-05-16T06:31:26;1.75;;;0.88;;
32838;SDS011;19182;41.820;12.808;2023-05-16T06:33:54;2.13;;;1.73;;
32838;SDS011;19182;41.820;12.808;2023-05-16T06:36:20;1.13;;;0.80;;
32838;SDS011;19182;41.820;12.808;2023-05-16T06:38:48;1.55;;;0.90;;
32838;SDS011;19182;41.820;12.808;2023-05-16T06:41:14;1.02;;;0.90;;
32838;SDS011;19182;41.820;12.808;2023-05-16T06:43:40;1.67;;;0.80;;
32838;SDS011;19182;41.820;12.808;2023-05-16T06:46:07;0.82;;;0.70;;
32838;SDS011;19182;41.820;12.808;2023-05-16T06:48:34;1.13;;;0.75;;
32838;SDS011;19182;41.820;12.808;2023-05-16T06:51:01;3.10;;;1.00;;
32838;SDS011;19182;41.820;12.808;2023-05-16T06:53:28;0.60;;;0.60;;
32838;SDS011;19182;41.820;12.808;2023-05-16T06:55:54;1.05;;;0.80;;
32838;SDS011;19182;41.820;12.808;2023-05-16T06:58:20;0.93;;;0.80;;
32838;SDS011;19182;41.820;12.808;2023-05-16T07:00:48;1.50;;;0.98;;
32838;SDS011;19182;41.820;12.808;2023-05-16T07:03:14;3.33;;;1.20;;
32838;SDS011;19182;41.820;12.808;2023-05-16T07:05:40;1.40;;;1.30;;
32838;SDS011;19182;41.820;12.808;2023-05-16T07:08:07;1.38;;;0.70;;
32838;SDS011;19182;41.820;12.808;2023-05-16T07:10:34;0.93;;;0.70;;
32838;SDS011;19182;41.820;12.808;2023-05-16T07:13:00;0.60;;;0.60;;
32838;SDS011;19182;41.820;12.808;2023-05-16T07:15:26;1.30;;;0.70;;
32838;SDS011;19182;41.820;12.808;2023-05-16T07:17:52;2.47;;;0.63;;
32838;SDS011;19182;41.820;12.808;2023-05-16T07:20:18;0.70;;;0.70;;
32838;SDS011;19182;41.820;12.808;2023-05-16T07:22:44;2.00;;;0.80;;
32838;SDS011;19182;41.820;12.808;2023-05-16T07:25:10;0.90;;;0.90;;
32838;SDS011;19182;41.820;12.808;2023-05-16T07:27:38;1.95;;;0.90;;
32838;SDS011;19182;41.820;12.808;2023-05-16T07:30:09;2.47;;;0.90;;
32838;SDS011;19182;41.820;12.808;2023-05-16T07:32:37;0.90;;;0.90;;
32838;SDS011;19182;41.820;12.808;2023-05-16T07:35:03;1.00;;;0.90;;
32838;SDS011;19182;41.820;12.808;2023-05-16T07:37:29;4.20;;;1.33;;
32838;SDS011;19182;41.820;12.808;2023-05-16T07:39:55;3.05;;;1.92;;
32838;SDS011;19182;41.820;12.808;2023-05-16T07:42:21;1.50;;;1.33;;
32838;SDS011;19182;41.820;12.808;2023-05-16T07:44:47;1.20;;;1.10;;
32838;SDS011;19182;41.820;12.808;2023-05-16T07:47:13;1.40;;;1.30;;
32838;SDS011;19182;41.820;12.808;2023-05-16T07:49:38;1.90;;;1.50;;
32838;SDS011;19182;41.820;12.808;2023-05-16T07:52:04;2.28;;;1.13;;
32838;SDS011;19182;41.820;12.808;2023-05-16T07:54:31;5.13;;;1.80;;
32838;SDS011;19182;41.820;12.808;2023-05-16T07:56:58;3.58;;;1.65;;
32838;SDS011;19182;41.820;12.808;2023-05-16T07:59:24;1.80;;;1.40;;
32838;SDS011;19182;41.820;12.808;2023-05-16T08:01:50;1.33;;;1.20;;
32838;SDS011;19182;41.820;12.808;2023-05-16T08:04:15;2.95;;;1.40;;
32838;SDS011;19182;41.820;12.808;2023-05-16T08:06:41;1.70;;;1.60;;
32838;SDS011;19182;41.820;12.808;2023-05-16T08:09:07;1.67;;;1.40;;
32838;SDS011;19182;41.820;12.808;2023-05-16T08:11:33;3.88;;;1.70;;
32838;SDS011;19182;41.820;12.808;2023-05-16T08:13:59;3.47;;;1.83;;
32838;SDS011;19182;41.820;12.808;2023-05-16T08:16:25;3.50;;;2.30;;
32838;SDS011;19182;41.820;12.808;2023-05-16T08:18:51;2.03;;;1.80;;
32838;SDS011;19182;41.820;12.808;2023-05-16T08:21:17;2.67;;;1.92;;
32838;SDS011;19182;41.820;12.808;2023-05-16T08:23:43;2.92;;;1.60;;
32838;SDS011;19182;41.820;12.808;2023-05-16T08:26:09;2.67;;;1.42;;
32838;SDS011;19182;41.820;12.808;2023-05-16T08:28:34;1.77;;;1.50;;
32838;SDS011;19182;41.820;12.808;2023-05-16T08:31:03;1.92;;;1.50;;
32838;SDS011;19182;41.820;12.808;2023-05-16T08:33:29;2.72;;;1.60;;
32838;SDS011;19182;41.820;12.808;2023-05-16T08:35:55;2.03;;;1.65;;
32838;SDS011;19182;41.820;12.808;2023-05-16T08:38:21;2.25;;;1.58;;
32838;SDS011;19182;41.820;12.808;2023-05-16T08:40:46;4.45;;;2.00;;
32838;SDS011;19182;41.820;12.808;2023-05-16T08:43:12;3.17;;;1.67;;
32838;SDS011;19182;41.820;12.808;2023-05-16T08:45:39;1.13;;;1.02;;
32838;SDS011;19182;41.820;12.808;2023-05-16T08:48:05;1.02;;;0.98;;
32838;SDS011;19182;41.820;12.808;2023-05-16T08:50:31;4.75;;;1.55;;
32838;SDS011;19182;41.820;12.808;2023-05-16T08:52:59;1.60;;;1.10;;
32838;SDS011;19182;41.820;12.808;2023-05-16T08:55:31;3.15;;;0.90;;
32838;SDS011;19182;41.820;12.808;2023-05-16T08:57:57;2.60;;;0.93;;
32838;SDS011;19182;41.820;12.808;2023-05-16T09:00:24;1.77;;;1.00;;
32838;SDS011;19182;41.820;12.808;2023-05-16T09:02:51;0.60;;;0.60;;
32838;SDS011;19182;41.820;12.808;2023-05-16T09:05:17;1.85;;;0.60;;
32838;SDS011;19182;41.820;12.808;2023-05-16T09:07:44;2.28;;;0.65;;
32838;SDS011;19182;41.820;12.808;2023-05-16T09:10:10;2.97;;;0.93;;
32838;SDS011;19182;41.820;12.808;2023-05-16T09:12:37;0.60;;;0.52;;
32838;SDS011;19182;41.820;12.808;2023-05-16T09:15:05;0.60;;;0.60;;
32838;SDS011;19182;41.820;12.808;2023-05-16T09:17:35;0.32;;;0.30;;
32838;SDS011;19182;41.820;12.808;2023-05-16T09:20:09;0.30;;;0.30;;
32838;SDS011;19182;41.820;12.808;2023-05-16T09:22:37;1.15;;;0.50;;
32838;SDS011;19182;41.820;12.808;2023-05-16T09:25:03;0.40;;;0.40;;
32838;SDS011;19182;41.820;12.808;2023-05-16T09:27:30;0.60;;;0.40;;
32838;SDS011;19182;41.820;12.808;2023-05-16T09:29:56;0.82;;;0.40;;
32838;SDS011;19182;41.820;12.808;2023-05-16T09:32:23;1.15;;;0.22;;
32838;SDS011;19182;41.820;12.808;2023-05-16T09:34:52;2.58;;;0.40;;
32838;SDS011;19182;41.820;12.808;2023-05-16T09:37:18;2.78;;;0.68;;
32838;SDS011;19182;41.820;12.808;2023-05-16T09:39:53;0.40;;;0.40;;
32838;SDS011;19182;41.820;12.808;2023-05-16T09:42:19;0.90;;;0.38;;
32838;SDS011;19182;41.820;12.808;2023-05-16T09:44:50;0.93;;;0.50;;
32838;SDS011;19182;41.820;12.808;2023-05-16T09:47:18;0.98;;;0.40;;
32838;SDS011;19182;41.820;12.808;2023-05-16T09:49:46;1.45;;;0.60;;
32838;SDS011;19182;41.820;12.808;2023-05-16T09:52:15;0.40;;;0.35;;
32838;SDS011;19182;41.820;12.808;2023-05-16T09:54:41;0.40;;;0.40;;
32838;SDS011;19182;41.820;12.808;2023-05-16T09:57:07;0.30;;;0.30;;
32838;SDS011;19182;41.820;12.808;2023-05-16T09:59:36;1.63;;;0.40;;
32838;SDS011;19182;41.820;12.808;2023-05-16T10:02:04;0.73;;;0.50;;
32838;SDS011;19182;41.820;12.808;2023-05-16T10:04:31;1.50;;;0.43;;
32838;SDS011;19182;41.820;12.808;2023-05-16T10:07:00;0.40;;;0.40;;
32838;SDS011;19182;41.820;12.808;2023-05-16T10:09:28;0.93;;;0.60;;
32838;SDS011;19182;41.820;12.808;2023-05-16T10:11:59;1.38;;;0.50;;
32838;SDS011;19182;41.820;12.808;2023-05-16T10:14:33;1.67;;;0.63;;
32838;SDS011;19182;41.820;12.808;2023-05-16T10:17:02;0.43;;;0.43;;
32838;SDS011;19182;41.820;12.808;2023-05-16T10:19:31;1.23;;;0.60;;
32838;SDS011;19182;41.820;12.808;2023-05-16T10:21:59;0.75;;;0.40;;
32838;SDS011;19182;41.820;12.808;2023-05-16T10:26:59;2.17;;;0.30;;
32838;SDS011;19182;41.820;12.808;2023-05-16T10:29:27;0.90;;;0.40;;
32838;SDS011;19182;41.820;12.808;2023-05-16T10:31:54;3.50;;;0.95;;
32838;SDS011;19182;41.820;12.808;2023-05-16T10:34:20;1.25;;;0.70;;
32838;SDS011;19182;41.820;12.808;2023-05-16T10:36:47;0.55;;;0.40;;
32838;SDS011;19182;41.820;12.808;2023-05-16T10:39:14;0.50;;;0.50;;
32838;SDS011;19182;41.820;12.808;2023-05-16T10:41:41;0.90;;;0.90;;
32838;SDS011;19182;41.820;12.808;2023-05-16T10:44:14;0.75;;;0.52;;
32838;SDS011;19182;41.820;12.808;2023-05-16T10:46:42;5.43;;;1.20;;
32838;SDS011;19182;41.820;12.808;2023-05-16T10:49:18;1.35;;;0.52;;
32838;SDS011;19182;41.820;12.808;2023-05-16T10:54:42;0.98;;;0.60;;
32838;SDS011;19182;41.820;12.808;2023-05-16T10:57:09;0.77;;;0.60;;
32838;SDS011;19182;41.820;12.808;2023-05-16T11:04:56;3.97;;;1.10;;
32838;SDS011;19182;41.820;12.808;2023-05-16T11:07:25;0.57;;;0.35;;
32838;SDS011;19182;41.820;12.808;2023-05-16T11:10:08;1.88;;;0.73;;
32838;SDS011;19182;41.820;12.808;2023-05-16T11:12:41;1.55;;;1.10;;
32838;SDS011;19182;41.820;12.808;2023-05-16T11:15:30;1.02;;;0.73;;
32838;SDS011;19182;41.820;12.808;2023-05-16T11:18:06;0.55;;;0.43;;
32838;SDS011;19182;41.820;12.808;2023-05-16T11:20:39;2.50;;;0.70;;
32838;SDS011;19182;41.820;12.808;2023-05-16T11:23:17;1.27;;;0.52;;
32838;SDS011;19182;41.820;12.808;2023-05-16T11:25:45;0.43;;;0.43;;
32838;SDS011;19182;41.820;12.808;2023-05-16T11:28:24;1.27;;;0.73;;
32838;SDS011;19182;41.820;12.808;2023-05-16T11:30:51;2.55;;;1.05;;
32838;SDS011;19182;41.820;12.808;2023-05-16T11:33:21;3.95;;;1.40;;
32838;SDS011;19182;41.820;12.808;2023-05-16T11:36:04;1.25;;;0.47;;
32838;SDS011;19182;41.820;12.808;2023-05-16T11:38:32;0.65;;;0.50;;
32838;SDS011;19182;41.820;12.808;2023-05-16T11:41:05;0.68;;;0.40;;
32838;SDS011;19182;41.820;12.808;2023-05-16T11:43:39;0.93;;;0.45;;
32838;SDS011;19182;41.820;12.808;2023-05-16T11:46:06;1.35;;;1.00;;
32838;SDS011;19182;41.820;12.808;2023-05-16T11:48:36;1.80;;;1.05;;
32838;SDS011;19182;41.820;12.808;2023-05-16T11:51:02;2.55;;;0.90;;
32838;SDS011;19182;41.820;12.808;2023-05-16T11:53:30;1.08;;;0.90;;
32838;SDS011;19182;41.820;12.808;2023-05-16T11:55:58;1.25;;;1.05;;
32838;SDS011;19182;41.820;12.808;2023-05-16T11:58:25;1.58;;;1.13;;
32838;SDS011;19182;41.820;12.808;2023-05-16T12:00:51;3.05;;;1.40;;
32838;SDS011;19182;41.820;12.808;2023-05-16T12:03:17;0.80;;;0.80;;
32838;SDS011;19182;41.820;12.808;2023-05-16T12:06:03;1.40;;;0.57;;
32838;SDS011;19182;41.820;12.808;2023-05-16T12:08:31;0.77;;;0.77;;
32838;SDS011;19182;41.820;12.808;2023-05-16T12:10:58;1.55;;;0.70;;
32838;SDS011;19182;41.820;12.808;2023-05-16T12:13:24;1.65;;;0.75;;
32838;SDS011;19182;41.820;12.808;2023-05-16T12:15:50;1.00;;;0.90;;
32838;SDS011;19182;41.820;12.808;2023-05-16T12:18:16;2.83;;;1.00;;
32838;SDS011;19182;41.820;12.808;2023-05-16T12:20:45;4.20;;;0.90;;
32838;SDS011;19182;41.820;12.808;2023-05-16T12:23:12;1.20;;;0.93;;
32838;SDS011;19182;41.820;12.808;2023-05-16T12:25:39;1.25;;;0.70;;
32838;SDS011;19182;41.820;12.808;2023-05-16T12:28:13;3.60;;;1.15;;
32838;SDS011;19182;41.820;12.808;2023-05-16T12:30:40;1.40;;;1.20;;
32838;SDS011;19182;41.820;12.808;2023-05-16T12:33:08;1.52;;;1.13;;
32838;SDS011;19182;41.820;12.808;2023-05-16T12:35:42;0.90;;;0.90;;
32838;SDS011;19182;41.820;12.808;2023-05-16T12:38:10;0.98;;;0.98;;
32838;SDS011;19182;41.820;12.808;2023-05-16T12:40:38;6.45;;;1.13;;
32838;SDS011;19182;41.820;12.808;2023-05-16T12:43:15;1.02;;;1.00;;
32838;SDS011;19182;41.820;12.808;2023-05-16T12:45:41;0.68;;;0.68;;
32838;SDS011;19182;41.820;12.808;2023-05-16T12:48:13;0.80;;;0.80;;
32838;SDS011;19182;41.820;12.808;2023-05-16T12:50:40;3.40;;;0.82;;
32838;SDS011;19182;41.820;12.808;2023-05-16T12:53:11;1.17;;;0.85;;
32838;SDS011;19182;41.820;12.808;2023-05-16T12:55:37;2.35;;;1.00;;
32838;SDS011;19182;41.820;12.808;2023-05-16T12:58:04;1.20;;;0.80;;
32838;SDS011;19182;41.820;12.808;2023-05-16T13:00:32;1.63;;;1.10;;
32838;SDS011;19182;41.820;12.808;2023-05-16T13:03:00;1.85;;;0.93;;
32838;SDS011;19182;41.820;12.808;2023-05-16T13:05:28;1.58;;;1.20;;
32838;SDS011;19182;41.820;12.808;2023-05-16T13:07:55;1.42;;;1.17;;
32838;SDS011;19182;41.820;12.808;2023-05-16T13:10:20;2.35;;;0.98;;
32838;SDS011;19182;41.820;12.808;2023-05-16T13:12:49;6.28;;;1.98;;
32838;SDS011;19182;41.820;12.808;2023-05-16T13:15:15;3.53;;;1.60;;
32838;SDS011;19182;41.820;12.808;2023-05-16T13:17:43;4.07;;;1.40;;
32838;SDS011;19182;41.820;12.808;2023-05-16T13:20:08;6.40;;;2.10;;
32838;SDS011;19182;41.820;12.808;2023-05-16T13:22:39;6.75;;;2.33;;
32838;SDS011;19182;41.820;12.808;2023-05-16T13:25:05;3.13;;;2.10;;
32838;SDS011;19182;41.820;12.808;2023-05-16T13:27:33;4.70;;;1.17;;
32838;SDS011;19182;41.820;12.808;2023-05-16T13:29:59;4.38;;;1.20;;
32838;SDS011;19182;41.820;12.808;2023-05-16T13:32:24;1.55;;;1.23;;
32838;SDS011;19182;41.820;12.808;2023-05-16T13:34:50;1.30;;;1.10;;
32838;SDS011;19182;41.820;12.808;2023-05-16T13:37:16;3.45;;;1.38;;
32838;SDS011;19182;41.820;12.808;2023-05-16T13:39:42;7.10;;;1.45;;
32838;SDS011;19182;41.820;12.808;2023-05-16T13:42:08;1.30;;;1.20;;
32838;SDS011;19182;41.820;12.808;2023-05-16T13:44:34;5.07;;;1.58;;
32838;SDS011;19182;41.820;12.808;2023-05-16T13:47:01;6.72;;;1.35;;
32838;SDS011;19182;41.820;12.808;2023-05-16T13:49:28;1.73;;;1.10;;
32838;SDS011;19182;41.820;12.808;2023-05-16T13:51:54;3.92;;;1.30;;
32838;SDS011;19182;41.820;12.808;2023-05-16T13:54:22;1.30;;;1.20;;
32838;SDS011;19182;41.820;12.808;2023-05-16T13:56:48;4.47;;;1.30;;
32838;SDS011;19182;41.820;12.808;2023-05-16T13:59:13;3.50;;;1.75;;
32838;SDS011;19182;41.820;12.808;2023-05-16T14:01:40;10.52;;;1.33;;
32838;SDS011;19182;41.820;12.808;2023-05-16T14:04:06;5.60;;;1.27;;
32838;SDS011;19182;41.820;12.808;2023-05-16T14:06:33;1.70;;;1.10;;
32838;SDS011;19182;41.820;12.808;2023-05-16T14:09:01;1.33;;;0.90;;
32838;SDS011;19182;41.820;12.808;2023-05-16T14:11:27;4.70;;;1.20;;
32838;SDS011;19182;41.820;12.808;2023-05-16T14:13:53;1.52;;;1.00;;
32838;SDS011;19182;41.820;12.808;2023-05-16T14:16:19;2.72;;;1.55;;
32838;SDS011;19182;41.820;12.808;2023-05-16T14:18:48;3.10;;;1.63;;
32838;SDS011;19182;41.820;12.808;2023-05-16T14:21:16;1.53;;;1.33;;
32838;SDS011;19182;41.820;12.808;2023-05-16T14:23:43;4.20;;;1.50;;
32838;SDS011;19182;41.820;12.808;2023-05-16T14:26:10;2.60;;;1.70;;
32838;SDS011;19182;41.820;12.808;2023-05-16T14:28:36;2.47;;;1.60;;
32838;SDS011;19182;41.820;12.808;2023-05-16T14:31:03;4.75;;;1.60;;
32838;SDS011;19182;41.820;12.808;2023-05-16T14:33:35;2.65;;;1.70;;
32838;SDS011;19182;41.820;12.808;2023-05-16T14:36:05;3.30;;;1.73;;
32838;SDS011;19182;41.820;12.808;2023-05-16T14:38:31;6.03;;;1.65;;
32838;SDS011;19182;41.820;12.808;2023-05-16T14:40:57;3.33;;;1.70;;
32838;SDS011;19182;41.820;12.808;2023-05-16T14:43:24;2.40;;;1.00;;
32838;SDS011;19182;41.820;12.808;2023-05-16T14:45:49;1.10;;;1.00;;
32838;SDS011;19182;41.820;12.808;2023-05-16T14:48:17;4.35;;;1.10;;
32838;SDS011;19182;41.820;12.808;2023-05-16T14:50:42;2.15;;;0.82;;
32838;SDS011;19182;41.820;12.808;2023-05-16T14:53:10;1.58;;;1.10;;
32838;SDS011;19182;41.820;12.808;2023-05-16T14:55:35;3.65;;;1.38;;
32838;SDS011;19182;41.820;12.808;2023-05-16T14:58:01;1.45;;;1.10;;
32838;SDS011;19182;41.820;12.808;2023-05-16T15:00:27;1.88;;;1.30;;